createdAt,value
2018-08-06T00:01:09.990Z,6.23
2018-08-06T00:03:39.139Z,6.27
2018-08-06T00:06:08.354Z,6.30
2018-08-06T00:08:37.407Z,6.50
2018-08-06T00:11:06.660Z,6.50
2018-08-06T00:13:35.890Z,6.77
2018-08-06T00:16:05.174Z,6.20
2018-08-06T00:18:34.006Z,6.27
2018-08-06T00:21:03.203Z,6.43
2018-08-06T00:23:32.359Z,6.43
2018-08-06T00:26:01.494Z,6.07
2018-08-06T00:28:30.619Z,6.63
2018-08-06T00:30:59.750Z,6.50
2018-08-06T00:33:28.941Z,6.20
2018-08-06T00:35:57.989Z,6.20
2018-08-06T00:38:27.070Z,6.50
2018-08-06T00:40:56.222Z,6.47
2018-08-06T00:43:25.442Z,6.70
2018-08-06T00:45:54.550Z,6.40
2018-08-06T00:48:23.378Z,6.43
2018-08-06T00:50:52.321Z,6.47
2018-08-06T00:53:21.604Z,6.00
2018-08-06T00:55:50.942Z,6.37
2018-08-06T00:58:20.085Z,6.47
2018-08-06T01:00:49.030Z,6.13
2018-08-06T01:03:18.215Z,6.70
2018-08-06T01:05:47.277Z,6.17
2018-08-06T01:08:16.479Z,6.33
2018-08-06T01:10:45.765Z,6.93
2018-08-06T01:13:14.966Z,6.50
2018-08-06T01:15:44.264Z,6.73
2018-08-06T01:18:13.536Z,6.60
2018-08-06T01:20:42.765Z,6.63
2018-08-06T01:23:12.109Z,6.30
2018-08-06T01:25:41.175Z,6.40
2018-08-06T01:28:10.347Z,6.47
2018-08-06T01:30:39.414Z,6.13
2018-08-06T01:33:08.546Z,6.83
2018-08-06T01:35:37.642Z,6.80
2018-08-06T01:38:06.886Z,7.00
2018-08-06T01:40:35.974Z,6.80
2018-08-06T01:43:04.870Z,6.73
2018-08-06T01:45:33.901Z,6.70
2018-08-06T01:48:03.564Z,7.03
2018-08-06T01:50:32.675Z,6.83
2018-08-06T01:53:01.944Z,6.63
2018-08-06T01:55:31.067Z,7.20
2018-08-06T01:58:00.153Z,6.97
2018-08-06T02:00:29.462Z,7.13
2018-08-06T02:02:58.728Z,7.00
2018-08-06T02:05:27.878Z,7.07
2018-08-06T02:07:57.028Z,7.37
2018-08-06T02:10:26.055Z,7.13
2018-08-06T02:12:55.281Z,6.90
2018-08-06T02:15:24.475Z,6.70
2018-08-06T02:17:53.482Z,7.10
2018-08-06T02:20:22.641Z,6.93
2018-08-06T02:22:51.445Z,6.67
2018-08-06T02:25:20.367Z,6.70
2018-08-06T02:27:49.689Z,6.37
2018-08-06T02:30:18.400Z,6.67
2018-08-06T02:32:47.353Z,6.73
2018-08-06T02:35:17.021Z,7.17
2018-08-06T02:37:46.072Z,6.83
2018-08-06T02:40:17.878Z,7.70
2018-08-06T02:42:47.432Z,7.07
2018-08-06T02:45:17.038Z,7.53
2018-08-06T02:47:46.273Z,7.17
2018-08-06T02:50:15.711Z,6.80
2018-08-06T02:52:45.346Z,7.20
2018-08-06T02:55:15.998Z,7.03
2018-08-06T02:57:45.167Z,7.13
2018-08-06T03:00:16.094Z,7.07
2018-08-06T03:02:46.067Z,7.23
2018-08-06T03:05:16.330Z,7.17
2018-08-06T03:07:45.630Z,7.37
2018-08-06T03:10:14.942Z,7.77
2018-08-06T03:12:45.057Z,7.80
2018-08-06T03:15:14.307Z,7.57
2018-08-06T03:17:43.395Z,7.37
2018-08-06T03:20:13.448Z,7.47
2018-08-06T03:22:42.335Z,7.33
2018-08-06T03:25:13.330Z,7.47
2018-08-06T03:27:43.108Z,8.03
2018-08-06T03:30:14.674Z,7.17
2018-08-06T03:32:44.602Z,7.60
2018-08-06T03:35:13.558Z,7.43
2018-08-06T03:37:42.855Z,7.17
2018-08-06T03:40:12.263Z,7.50
2018-08-06T03:42:41.556Z,8.13
2018-08-06T03:45:11.874Z,7.63
2018-08-06T03:47:41.891Z,7.77
2018-08-06T03:50:12.423Z,7.20
2018-08-06T03:52:41.735Z,7.53
2018-08-06T03:55:11.426Z,7.50
2018-08-06T03:57:40.902Z,7.00
2018-08-06T04:00:11.814Z,7.67
2018-08-06T04:02:41.622Z,7.57
2018-08-06T04:05:12.194Z,7.60
2018-08-06T04:07:41.302Z,7.10
2018-08-06T04:10:12.099Z,6.83
2018-08-06T04:12:41.637Z,7.30
2018-08-06T04:15:11.285Z,7.50
2018-08-06T04:17:40.971Z,7.50
2018-08-06T04:20:11.281Z,7.10
2018-08-06T04:22:41.191Z,7.40
2018-08-06T04:25:10.334Z,7.50
2018-08-06T04:27:39.547Z,7.77
2018-08-06T04:30:12.256Z,8.27
2018-08-06T04:32:41.747Z,8.43
2018-08-06T04:35:10.870Z,7.10
2018-08-06T04:37:40.247Z,7.73
2018-08-06T04:40:10.908Z,7.03
2018-08-06T04:42:40.081Z,7.60
2018-08-06T04:45:09.899Z,7.77
2018-08-06T04:47:39.924Z,7.50
2018-08-06T04:50:10.746Z,7.37
2018-08-06T04:52:40.058Z,7.40
2018-08-06T04:55:11.491Z,7.43
2018-08-06T04:57:40.780Z,7.30
2018-08-06T05:00:12.028Z,7.07
2018-08-06T05:02:41.496Z,6.83
2018-08-06T05:05:11.502Z,7.80
2018-08-06T05:07:40.266Z,7.63
2018-08-06T05:10:09.523Z,7.30
2018-08-06T05:12:38.696Z,7.33
2018-08-06T05:15:08.019Z,7.83
2018-08-06T05:17:37.179Z,8.10
2018-08-06T05:20:06.621Z,7.10
2018-08-06T05:22:35.856Z,7.87
2018-08-06T05:25:05.186Z,7.87
2018-08-06T05:27:34.375Z,7.33
2018-08-06T05:30:03.474Z,7.13
2018-08-06T05:32:32.446Z,6.77
2018-08-06T05:35:01.458Z,8.33
2018-08-06T05:37:30.751Z,9.53
2018-08-06T05:39:59.606Z,10.07
2018-08-06T05:42:28.723Z,10.63
2018-08-06T05:44:58.106Z,10.90
2018-08-06T05:47:27.242Z,9.10
2018-08-06T05:49:56.222Z,9.53
2018-08-06T05:52:25.122Z,9.10
2018-08-06T05:54:54.554Z,9.10
2018-08-06T05:57:23.812Z,9.57
2018-08-06T05:59:52.728Z,9.50
2018-08-06T06:02:22.100Z,8.67
2018-08-06T06:04:51.251Z,8.90
2018-08-06T06:07:20.251Z,8.37
2018-08-06T06:09:49.545Z,8.90
2018-08-06T06:12:18.784Z,8.07
2018-08-06T06:14:48.031Z,8.03
2018-08-06T06:17:17.184Z,7.63
2018-08-06T06:19:46.202Z,8.23
2018-08-06T06:22:15.364Z,7.80
2018-08-06T06:24:44.521Z,8.00
2018-08-06T06:27:13.625Z,7.10
2018-08-06T06:29:42.876Z,7.20
2018-08-06T06:32:12.152Z,6.90
2018-08-06T06:34:41.448Z,7.40
2018-08-06T06:37:10.334Z,7.43
2018-08-06T06:39:39.330Z,6.93
2018-08-06T06:42:08.499Z,6.90
2018-08-06T06:44:37.705Z,6.87
2018-08-06T06:47:06.667Z,8.30
2018-08-06T06:49:35.511Z,15.23
2018-08-06T06:52:04.871Z,16.07
2018-08-06T06:54:34.069Z,7.80
2018-08-06T06:57:03.324Z,6.20
2018-08-06T06:59:32.194Z,6.83
2018-08-06T07:02:01.112Z,6.23
2018-08-06T07:04:29.959Z,6.17
2018-08-06T07:06:59.222Z,6.67
2018-08-06T07:09:28.310Z,6.27
2018-08-06T07:11:57.358Z,6.57
2018-08-06T07:14:26.630Z,5.60
2018-08-06T07:16:55.847Z,5.90
2018-08-06T07:19:25.076Z,5.50
2018-08-06T07:21:54.198Z,5.60
2018-08-06T07:24:23.130Z,5.20
2018-08-06T07:26:52.291Z,6.10
2018-08-06T07:29:21.434Z,6.00
2018-08-06T07:31:50.270Z,5.80
2018-08-06T07:34:19.546Z,5.90
2018-08-06T07:36:48.423Z,5.80
2018-08-06T07:39:17.589Z,6.13
2018-08-06T07:41:46.644Z,5.90
2018-08-06T07:44:15.779Z,6.17
2018-08-06T07:46:45.019Z,5.60
2018-08-06T07:49:14.271Z,5.93
2018-08-06T07:51:43.501Z,5.90
2018-08-06T07:54:12.473Z,6.00
2018-08-06T07:56:41.898Z,5.73
2018-08-06T07:59:11.207Z,5.67
2018-08-06T08:01:40.396Z,6.03
2018-08-06T08:04:09.525Z,5.40
2018-08-06T08:06:38.760Z,5.57
2018-08-06T08:09:10.494Z,5.70
2018-08-06T08:11:39.962Z,6.20
2018-08-06T08:14:09.310Z,6.17
2018-08-06T08:16:38.660Z,5.97
2018-08-06T08:19:07.658Z,5.60
2018-08-06T08:21:36.814Z,5.70
2018-08-06T08:24:06.095Z,5.97
2018-08-06T08:26:35.287Z,5.97
2018-08-06T08:29:04.514Z,6.10
2018-08-06T08:31:34.516Z,5.60
2018-08-06T08:34:03.739Z,6.03
2018-08-06T08:36:32.772Z,5.83
2018-08-06T08:39:01.810Z,6.50
2018-08-06T08:41:31.020Z,5.87
2018-08-06T08:44:00.138Z,6.20
2018-08-06T08:46:29.332Z,5.43
2018-08-06T08:48:58.349Z,5.80
2018-08-06T08:51:27.360Z,5.80
2018-08-06T08:53:56.466Z,6.13
2018-08-06T08:56:26.325Z,5.63
2018-08-06T08:58:55.606Z,5.73
2018-08-06T09:01:24.818Z,6.00
2018-08-06T09:03:53.959Z,6.10
2018-08-06T09:06:23.258Z,5.63
2018-08-06T09:08:52.575Z,5.20
2018-08-06T09:11:21.643Z,5.37
2018-08-06T09:13:50.754Z,5.57
2018-08-06T09:16:19.890Z,5.37
2018-08-06T09:18:48.860Z,4.47
2018-08-06T09:21:18.188Z,4.70
2018-08-06T09:23:47.198Z,5.20
2018-08-06T09:26:16.326Z,5.25
2018-08-06T09:28:45.638Z,4.65
2018-08-06T09:31:14.877Z,4.75
2018-08-06T09:33:43.988Z,4.40
2018-08-06T09:36:13.120Z,4.78
2018-08-06T09:38:42.336Z,5.12
2018-08-06T09:41:11.488Z,4.22
2018-08-06T09:43:40.343Z,4.83
2018-08-06T09:46:09.431Z,4.53
2018-08-06T09:48:38.580Z,4.35
2018-08-06T09:51:07.892Z,4.50
2018-08-06T09:53:37.338Z,4.50
2018-08-06T09:56:06.639Z,4.37
2018-08-06T09:58:35.875Z,4.85
2018-08-06T10:01:10.231Z,4.50
2018-08-06T10:03:39.287Z,4.30
2018-08-06T10:06:08.394Z,4.40
2018-08-06T10:08:37.215Z,4.53
2018-08-06T10:11:06.521Z,4.65
2018-08-06T10:13:35.543Z,4.72
2018-08-06T10:16:04.835Z,4.90
2018-08-06T10:18:34.170Z,5.30
2018-08-06T10:21:03.465Z,4.92
2018-08-06T10:23:32.703Z,5.45
2018-08-06T10:26:01.851Z,4.97
2018-08-06T10:28:30.838Z,5.10
2018-08-06T10:30:59.940Z,4.47
2018-08-06T10:33:29.045Z,4.60
2018-08-06T10:35:58.335Z,4.85
2018-08-06T10:38:27.496Z,4.37
2018-08-06T10:40:56.612Z,4.65
2018-08-06T10:43:25.765Z,4.87
2018-08-06T10:45:54.951Z,5.08
2018-08-06T10:48:24.228Z,5.20
2018-08-06T10:50:53.646Z,5.05
2018-08-06T10:53:22.754Z,4.37
2018-08-06T10:55:52.053Z,4.60
2018-08-06T10:58:20.835Z,4.72
2018-08-06T11:00:49.886Z,4.50
2018-08-06T11:03:19.129Z,4.95
2018-08-06T11:05:48.356Z,4.50
2018-08-06T11:08:17.534Z,4.45
2018-08-06T11:10:46.598Z,4.60
2018-08-06T11:13:15.519Z,4.50
2018-08-06T11:15:44.589Z,5.10
2018-08-06T11:18:13.850Z,5.80
2018-08-06T11:20:42.812Z,4.80
2018-08-06T11:23:11.591Z,4.85
2018-08-06T11:25:40.871Z,4.55
2018-08-06T11:28:10.025Z,4.53
2018-08-06T11:30:39.211Z,4.28
2018-08-06T11:33:08.455Z,4.37
2018-08-06T11:35:37.666Z,4.37
2018-08-06T11:38:06.570Z,3.77
2018-08-06T11:40:35.855Z,4.20
2018-08-06T11:43:04.915Z,3.42
2018-08-06T11:45:34.052Z,4.22
2018-08-06T11:48:03.112Z,3.90
2018-08-06T11:50:32.316Z,3.95
2018-08-06T11:53:01.570Z,4.53
2018-08-06T11:55:30.751Z,4.08
2018-08-06T11:58:00.012Z,4.30
2018-08-06T12:00:29.071Z,4.60
2018-08-06T12:02:58.258Z,4.72
2018-08-06T12:05:27.498Z,4.58
2018-08-06T12:07:56.782Z,4.55
2018-08-06T12:10:25.950Z,4.22
2018-08-06T12:12:55.082Z,4.90
2018-08-06T12:15:23.822Z,4.60
2018-08-06T12:17:52.790Z,5.15
2018-08-06T12:20:22.039Z,5.00
2018-08-06T12:22:52.030Z,4.03
2018-08-06T12:25:21.241Z,4.87
2018-08-06T12:27:50.678Z,4.33
2018-08-06T12:30:21.051Z,4.17
2018-08-06T12:32:50.910Z,4.60
2018-08-06T12:35:19.731Z,4.08
2018-08-06T12:37:49.181Z,4.22
2018-08-06T12:40:19.635Z,4.12
2018-08-06T12:42:48.623Z,4.78
2018-08-06T12:45:18.130Z,4.40
2018-08-06T12:47:47.390Z,4.10
2018-08-06T12:50:17.253Z,4.30
2018-08-06T12:52:46.678Z,4.15
2018-08-06T12:55:17.175Z,4.83
2018-08-06T12:57:46.626Z,4.30
2018-08-06T13:00:20.886Z,4.40
2018-08-06T13:02:50.796Z,4.45
2018-08-06T13:05:20.568Z,4.12
2018-08-06T13:07:49.826Z,3.80
2018-08-06T13:10:19.582Z,4.25
2018-08-06T13:12:48.912Z,4.33
2018-08-06T13:15:18.238Z,3.77
2018-08-06T13:17:47.376Z,4.08
2018-08-06T13:20:16.202Z,4.65
2018-08-06T13:22:45.493Z,4.30
2018-08-06T13:25:14.774Z,4.00
2018-08-06T13:27:44.078Z,3.83
2018-08-06T13:30:14.887Z,4.33
2018-08-06T13:32:44.354Z,4.12
2018-08-06T13:35:14.447Z,4.20
2018-08-06T13:37:43.358Z,4.10
2018-08-06T13:40:12.802Z,4.00
2018-08-06T13:42:42.094Z,4.00
2018-08-06T13:45:13.026Z,4.33
2018-08-06T13:47:42.330Z,4.10
2018-08-06T13:50:11.821Z,4.20
2018-08-06T13:52:41.190Z,4.70
2018-08-06T13:55:11.760Z,4.53
2018-08-06T13:57:41.287Z,4.28
2018-08-06T14:00:14.385Z,4.30
2018-08-06T14:02:43.651Z,4.37
2018-08-06T14:05:14.126Z,4.90
2018-08-06T14:07:44.185Z,4.20
2018-08-06T14:10:13.494Z,4.20
2018-08-06T14:12:42.793Z,4.60
2018-08-06T14:15:12.493Z,4.30
2018-08-06T14:17:42.210Z,3.90
2018-08-06T14:20:15.783Z,4.97
2018-08-06T14:22:44.788Z,4.53
2018-08-06T14:25:14.098Z,4.55
2018-08-06T14:27:43.107Z,4.92
2018-08-06T14:30:14.541Z,4.50
2018-08-06T14:32:44.294Z,4.67
2018-08-06T14:35:13.635Z,4.63
2018-08-06T14:37:42.988Z,4.60
2018-08-06T14:40:18.348Z,4.57
2018-08-06T14:42:47.843Z,4.70
2018-08-06T14:45:17.157Z,4.83
2018-08-06T14:47:45.971Z,4.40
2018-08-06T14:50:15.804Z,4.30
2018-08-06T14:52:44.710Z,4.50
2018-08-06T14:55:13.931Z,4.50
2018-08-06T14:57:43.229Z,4.50
2018-08-06T15:00:19.083Z,4.60
2018-08-06T15:02:48.950Z,4.50
2018-08-06T15:05:17.993Z,4.43
2018-08-06T15:07:47.307Z,4.63
2018-08-06T15:10:16.740Z,5.40
2018-08-06T15:12:45.857Z,5.10
2018-08-06T15:15:16.274Z,5.23
2018-08-06T15:17:46.056Z,4.63
2018-08-06T15:20:16.520Z,4.67
2018-08-06T15:22:45.831Z,4.80
2018-08-06T15:25:17.141Z,4.70
2018-08-06T15:27:46.441Z,4.73
2018-08-06T15:30:15.712Z,4.83
2018-08-06T15:32:44.925Z,4.63
2018-08-06T15:35:14.438Z,5.23
2018-08-06T15:37:44.303Z,4.80
2018-08-06T15:40:15.397Z,4.83
2018-08-06T15:42:44.611Z,4.93
2018-08-06T15:45:14.213Z,5.27
2018-08-06T15:47:44.257Z,4.90
2018-08-06T15:50:15.258Z,4.53
2018-08-06T15:52:44.501Z,5.20
2018-08-06T15:55:13.696Z,4.80
2018-08-06T15:57:43.038Z,4.40
2018-08-06T16:00:14.262Z,4.80
2018-08-06T16:02:43.749Z,4.83
2018-08-06T16:05:13.149Z,5.10
2018-08-06T16:07:41.987Z,5.40
2018-08-06T16:10:12.127Z,5.07
2018-08-06T16:12:41.227Z,5.23
2018-08-06T16:15:12.273Z,5.10
2018-08-06T16:17:42.147Z,4.90
2018-08-06T16:20:14.072Z,5.10
2018-08-06T16:22:42.925Z,5.03
2018-08-06T16:25:12.698Z,4.80
2018-08-06T16:27:42.002Z,4.90
2018-08-06T16:30:18.807Z,5.23
2018-08-06T16:32:48.398Z,6.00
2018-08-06T16:35:19.135Z,5.90
2018-08-06T16:37:48.423Z,5.27
2018-08-06T16:40:17.663Z,6.00
2018-08-06T16:42:46.920Z,6.53
2018-08-06T16:45:16.140Z,6.87
2018-08-06T16:47:45.358Z,6.60
2018-08-06T16:50:15.794Z,8.10
2018-08-06T16:52:45.763Z,7.07
2018-08-06T16:55:15.052Z,7.17
2018-08-06T16:57:44.311Z,7.10
2018-08-06T17:00:16.287Z,7.30
2018-08-06T17:02:45.541Z,6.50
2018-08-06T17:05:14.958Z,6.20
2018-08-06T17:07:45.102Z,5.33
2018-08-06T17:10:16.768Z,5.43
2018-08-06T17:12:46.748Z,5.57
2018-08-06T17:15:16.996Z,5.67
2018-08-06T17:17:46.661Z,5.90
2018-08-06T17:20:17.496Z,5.30
2018-08-06T17:22:47.791Z,4.80
2018-08-06T17:25:16.959Z,4.83
2018-08-06T17:27:46.172Z,4.57
2018-08-06T17:30:16.186Z,4.60
2018-08-06T17:32:45.422Z,4.73
2018-08-06T17:35:15.113Z,5.47
2018-08-06T17:37:43.941Z,5.47
2018-08-06T17:40:15.141Z,5.17
2018-08-06T17:42:44.034Z,5.03
2018-08-06T17:45:16.218Z,5.00
2018-08-06T17:47:44.997Z,4.93
2018-08-06T17:50:18.014Z,5.03
2018-08-06T17:52:47.766Z,4.70
2018-08-06T17:55:17.914Z,5.13
2018-08-06T17:57:47.067Z,4.87
2018-08-06T18:00:17.082Z,4.97
2018-08-06T18:02:46.173Z,4.90
2018-08-06T18:05:16.391Z,4.90
2018-08-06T18:07:45.584Z,4.90
2018-08-06T18:10:16.020Z,5.27
2018-08-06T18:12:45.807Z,5.33
2018-08-06T18:15:14.992Z,5.00
2018-08-06T18:17:44.052Z,5.50
2018-08-06T18:20:14.987Z,4.97
2018-08-06T18:22:44.351Z,5.00
2018-08-06T18:25:16.210Z,5.07
2018-08-06T18:27:47.306Z,5.10
2018-08-06T18:30:18.036Z,5.17
2018-08-06T18:32:47.226Z,5.17
2018-08-06T18:35:17.555Z,4.93
2018-08-06T18:37:46.858Z,4.73
2018-08-06T18:40:16.933Z,5.00
2018-08-06T18:42:45.930Z,4.87
2018-08-06T18:45:17.394Z,5.33
2018-08-06T18:47:47.500Z,4.87
2018-08-06T18:50:17.495Z,4.77
2018-08-06T18:52:47.627Z,5.60
2018-08-06T18:55:17.323Z,5.30
2018-08-06T18:57:46.860Z,5.30
2018-08-06T19:00:19.170Z,5.30
2018-08-06T19:02:48.460Z,5.90
2018-08-06T19:05:17.336Z,4.90
2018-08-06T19:07:46.334Z,5.00
2018-08-06T19:10:15.502Z,5.17
2018-08-06T19:12:49.769Z,5.00
2018-08-06T19:15:19.105Z,5.40
2018-08-06T19:17:53.279Z,5.13
2018-08-06T19:20:22.305Z,5.20
2018-08-06T19:22:51.644Z,5.10
2018-08-06T19:25:25.410Z,5.20
2018-08-06T19:27:55.001Z,5.07
2018-08-06T19:30:29.439Z,5.20
2018-08-06T19:32:58.697Z,5.77
2018-08-06T19:35:27.907Z,5.10
2018-08-06T19:37:57.245Z,5.30
2018-08-06T19:40:26.406Z,4.90
2018-08-06T19:43:00.467Z,4.87
2018-08-06T19:45:29.777Z,5.20
2018-08-06T19:47:58.970Z,4.57
2018-08-06T19:50:33.331Z,5.13
2018-08-06T19:53:02.535Z,4.30
2018-08-06T19:55:36.873Z,4.83
2018-08-06T19:58:06.014Z,5.13
2018-08-06T20:00:35.096Z,4.63
2018-08-06T20:03:04.386Z,4.57
2018-08-06T20:05:33.590Z,4.47
2018-08-06T20:08:02.721Z,4.77
2018-08-06T20:10:31.789Z,4.93
2018-08-06T20:13:01.596Z,4.77
2018-08-06T20:15:30.740Z,4.77
2018-08-06T20:18:00.069Z,4.77
2018-08-06T20:20:29.235Z,4.90
2018-08-06T20:22:58.581Z,4.20
2018-08-06T20:25:27.817Z,5.00
2018-08-06T20:27:57.151Z,4.70
2018-08-06T20:30:26.087Z,4.70
2018-08-06T20:32:55.079Z,4.73
2018-08-06T20:35:24.118Z,4.60
2018-08-06T20:37:53.406Z,4.70
2018-08-06T20:40:22.479Z,4.80
2018-08-06T20:42:51.394Z,4.73
2018-08-06T20:45:21.322Z,5.03
2018-08-06T20:47:50.415Z,4.73
2018-08-06T20:50:21.124Z,4.90
2018-08-06T20:52:51.636Z,4.57
2018-08-06T20:55:20.894Z,4.90
2018-08-06T20:57:50.559Z,4.93
2018-08-06T21:00:22.795Z,4.90
2018-08-06T21:02:52.257Z,4.57
2018-08-06T21:05:21.519Z,4.93
2018-08-06T21:07:50.767Z,4.63
2018-08-06T21:10:20.418Z,5.07
2018-08-06T21:12:50.031Z,5.13
2018-08-06T21:15:19.184Z,4.87
2018-08-06T21:17:48.440Z,4.80
2018-08-06T21:20:18.679Z,4.87
2018-08-06T21:22:48.869Z,5.20
2018-08-06T21:25:18.219Z,4.57
2018-08-06T21:27:48.349Z,5.00
2018-08-06T21:30:19.287Z,5.03
2018-08-06T21:32:50.422Z,5.63
2018-08-06T21:35:20.378Z,5.07
2018-08-06T21:37:50.606Z,4.87
2018-08-06T21:40:20.424Z,5.00
2018-08-06T21:42:50.166Z,5.23
2018-08-06T21:45:19.526Z,4.93
2018-08-06T21:47:49.096Z,5.27
2018-08-06T21:50:18.331Z,5.10
2018-08-06T21:52:47.660Z,4.87
2018-08-06T21:55:16.475Z,5.70
2018-08-06T21:57:45.715Z,5.53
2018-08-06T22:00:24.169Z,5.20
2018-08-06T22:02:53.306Z,5.63
2018-08-06T22:05:22.651Z,5.00
2018-08-06T22:07:51.447Z,5.33
2018-08-06T22:10:20.652Z,5.60
2018-08-06T22:12:49.519Z,5.07
2018-08-06T22:15:18.726Z,5.07
2018-08-06T22:17:47.981Z,5.67
2018-08-06T22:20:16.883Z,4.97
2018-08-06T22:22:46.218Z,4.80
2018-08-06T22:25:15.113Z,5.20
2018-08-06T22:27:44.270Z,5.43
2018-08-06T22:30:13.289Z,5.17
2018-08-06T22:32:42.295Z,5.23
2018-08-06T22:35:12.710Z,5.30
2018-08-06T22:37:42.813Z,5.10
2018-08-06T22:40:13.434Z,5.03
2018-08-06T22:42:42.923Z,5.70
2018-08-06T22:45:13.081Z,5.47
2018-08-06T22:47:43.158Z,5.03
2018-08-06T22:50:13.529Z,5.43
2018-08-06T22:52:42.834Z,5.27
2018-08-06T22:55:12.937Z,5.50
2018-08-06T22:57:42.642Z,5.10
2018-08-06T23:00:15.415Z,5.50
2018-08-06T23:02:45.159Z,5.27
2018-08-06T23:05:15.973Z,5.40
2018-08-06T23:07:45.334Z,5.30
2018-08-06T23:10:16.277Z,5.60
2018-08-06T23:12:45.672Z,5.43
2018-08-06T23:15:16.031Z,5.47
2018-08-06T23:17:45.775Z,5.60
2018-08-06T23:20:15.023Z,5.93
2018-08-06T23:22:44.243Z,5.27
2018-08-06T23:25:13.006Z,5.33
2018-08-06T23:27:42.290Z,5.50
2018-08-06T23:30:14.904Z,5.63
2018-08-06T23:32:44.005Z,5.87
2018-08-06T23:35:14.151Z,5.40
2018-08-06T23:37:44.536Z,5.47
2018-08-06T23:40:14.611Z,5.57
2018-08-06T23:42:44.008Z,5.13
2018-08-06T23:45:14.833Z,5.30
2018-08-06T23:47:43.934Z,5.40
2018-08-06T23:50:14.611Z,5.97
2018-08-06T23:52:44.988Z,5.90
2018-08-06T23:55:16.838Z,5.93
2018-08-06T23:57:46.038Z,5.43
